Arroyo Grande, CA

8:22 PM PDT on April 18, 2015 (GMT -0700)
Greenwood | | Change Station
CLOSE
Current Station
Personal Weather Station
Location: Arroyo Grande, CA
Elevation: 180 ft
Nearby Weather Stations

Elev 180 ft 35.12 °N, 120.55 °W | Updated 8 seconds ago

Clear
Clear
53.9 °F
Feels Like 53.9 °F
N
1.0
Wind Variable Wind from SW
Gusts 3.0 mph

Today
High -- | Low -- °F
--% Chance of Precip.
Yesterday
High -- | Low -- °F
Precip. -- in
6:26 AM 7:37 PM
New Moon, 0% visible
Pressure 29.98 in
Visibility 8.0 miles
Clouds Mostly Cloudy 1100 ft
Dew Point 49 °F
Humidity 83%
Rainfall 0.00 in
Snow Depth Not available.
UV 0 out of 12
Pollen 9.40 out of 12
Air Quality Not available.
Flu Activity Sporadic
SPECI KSBP 190315Z AUTO 15005KT 8SM BKN011 12/09 A2998 RMK AO2 CIG 007V012 T01170094

More Conditions Fewer Conditions

Pressure 29.98 in
Visibility 8.0 miles
Clouds Mostly Cloudy 1100 ft
Dew Point 49 °F
Humidity 83%
Rainfall 0.00 in
Snow Depth Not available.
UV 0 out of 12
Pollen 9.40 out of 12
Air Quality Not available.
Flu Activity Sporadic
SPECI KSBP 190315Z AUTO 15005KT 8SM BKN011 12/09 A2998 RMK AO2 CIG 007V012 T01170094

More Conditions Fewer Conditions

10-Day Weather Forecast

Almanac

Astronomy

Apr. 18, 2015 Rise Set
Actual Time
Civil Twilight
Nautical Twilight
Astronomical Twilight
Moon
Length of Visible Light
Length of Day
Tomorrow will be .
, % of the Moon is Illuminated

Today's Extremes

State Highs State Lows

Community

WunderPhotos

Upload Photos

1,814,693 photos uploaded!

WunderBlogs® & News

Nearby

Air Quality

  Air Quality AQ Index Pollutant
Not available.

Snow Depth

Station Depth Elevation

Earthquake Activity

City Distance Mag. Time & Date
Minimum magnitude displayed is 2.5.

Coastal Water Temperatures

Place Temperature

Stations

Nearby Weather Stations

Station Location Temp. Windchill Dew Point Humidity Wind Precip. Elev Updated Type